Terminal Aerodrome Forecast
Issued by NWS Albuquerque, NM

Home | Current Version | Previous Version | Text Only | Print | Product List | Glossary On
Versions: 1 2 3 4 5 6 7 8 9 10 11 12 13 14 15 16
976
FTUS45 KABQ 280753 AAB
TAFABQ
TAF AMD
KABQ 280753Z 2808/2906 09011KT P6SM FEW050
      TEMPO 2808/2812 09015G25KT
     FM281200 09015G25KT P6SM FEW050
     FM281700 12011KT P6SM FEW110
     FM290100 11012G20KT P6SM FEW110=

USA.gov is the U.S. government's official web portal to all federal, state and local government web resources and services.